Time;durP1;ratioP1;P1;durP2;ratioP2;P2;SDS_P1;SDS_P2;PMS_P1;PMS_P2;Temp;Humidity;BMP_temperature;BMP_pressure;BME280_temperature;BME280_humidity;BME280_pressure;Samples;Min_cycle;Max_cycle;Signal;HPM_P1;HPM_P2
2023/08/10 00:02:04;;;;;;;5.68;1.83;;;14.20;99.90;;;;;;5027168;28;20040;-71
2023/08/10 00:04:30;;;;;;;6.68;1.70;;;14.20;99.90;;;;;;5012296;28;20045;-71
2023/08/10 00:06:56;;;;;;;5.10;1.63;;;14.20;99.90;;;;;;5011966;28;20042;-72
2023/08/10 00:09:21;;;;;;;4.80;1.65;;;14.20;99.90;;;;;;5013423;28;20041;-71
2023/08/10 00:11:47;;;;;;;5.20;1.67;;;14.30;99.90;;;;;;4996957;28;20037;-71
2023/08/10 00:14:12;;;;;;;6.65;2.15;;;14.20;99.90;;;;;;5014741;28;20088;-71
2023/08/10 00:16:38;;;;;;;7.55;1.85;;;14.20;99.90;;;;;;5023846;28;20038;-72
2023/08/10 00:19:04;;;;;;;6.90;1.60;;;14.10;99.90;;;;;;5015882;28;20042;-71
2023/08/10 00:21:30;;;;;;;6.30;1.90;;;14.10;99.90;;;;;;5015906;28;20061;-71
2023/08/10 00:23:56;;;;;;;6.97;2.00;;;14.10;99.90;;;;;;5015733;28;20124;-71
2023/08/10 00:26:24;;;;;;;7.82;2.30;;;14.10;99.90;;;;;;5016989;28;20408;-71
2023/08/10 00:28:50;;;;;;;6.78;1.90;;;14.10;99.90;;;;;;5037016;28;20037;-71
2023/08/10 00:31:15;;;;;;;3.13;1.60;;;14.10;99.90;;;;;;5012855;28;20037;-71
2023/08/10 00:33:41;;;;;;;6.07;2.00;;;14.00;99.90;;;;;;5012408;28;20099;-71
2023/08/10 00:36:07;;;;;;;7.35;1.70;;;14.00;99.90;;;;;;5034711;28;20041;-71
2023/08/10 00:38:38;;;;;;;7.47;2.00;;;14.00;99.90;;;;;;5035323;28;20096;-71
2023/08/10 00:41:04;;;;;;;5.88;2.13;;;14.00;99.90;;;;;;5035211;28;20397;-72
2023/08/10 00:43:30;;;;;;;4.60;1.80;;;14.00;99.90;;;;;;5035156;28;20397;-72
2023/08/10 00:45:56;;;;;;;6.15;2.08;;;14.00;99.90;;;;;;5034781;28;20049;-72
2023/08/10 00:48:23;;;;;;;5.90;2.08;;;13.90;99.90;;;;;;5035328;28;20040;-72
2023/08/10 00:50:49;;;;;;;4.57;1.67;;;13.90;99.90;;;;;;5033931;28;20049;-72
2023/08/10 00:53:17;;;;;;;5.72;1.98;;;13.90;99.90;;;;;;5018502;28;20053;-71
2023/08/10 00:55:43;;;;;;;5.25;2.00;;;13.90;99.90;;;;;;5034435;28;20052;-72
2023/08/10 00:58:11;;;;;;;3.83;1.65;;;13.80;99.90;;;;;;5035241;28;20439;-72
2023/08/10 01:00:37;;;;;;;5.45;1.80;;;13.80;99.90;;;;;;5036210;28;20041;-72
2023/08/10 01:03:04;;;;;;;5.10;1.83;;;13.80;99.90;;;;;;5034143;28;20052;-72
2023/08/10 01:05:38;;;;;;;5.28;1.70;;;13.80;99.90;;;;;;5023609;28;20046;-71
2023/08/10 01:08:25;;;;;;;4.78;1.60;;;13.80;99.90;;;;;;4998568;28;20068;-72
2023/08/10 01:11:14;;;;;;;5.30;1.75;;;13.80;99.90;;;;;;4998583;28;20068;-72
2023/08/10 01:13:43;;;;;;;4.18;1.63;;;13.80;99.90;;;;;;5015135;28;20398;-72
2023/08/10 01:16:10;;;;;;;4.82;2.00;;;13.80;99.90;;;;;;5017036;28;20520;-72
2023/08/10 01:18:38;;;;;;;6.47;2.17;;;13.80;99.90;;;;;;5035801;28;20084;-72
2023/08/10 01:21:23;;;;;;;7.30;1.90;;;13.80;99.90;;;;;;5032952;28;20052;-72
2023/08/10 01:23:54;;;;;;;8.38;2.30;;;13.70;99.90;;;;;;5033493;28;20034;-72
2023/08/10 01:26:21;;;;;;;4.82;1.60;;;13.80;99.90;;;;;;5014626;28;20129;-72
2023/08/10 01:28:47;;;;;;;2.97;1.50;;;13.80;99.90;;;;;;5014078;28;20042;-72
2023/08/10 01:31:13;;;;;;;4.00;1.75;;;13.80;99.90;;;;;;5034309;28;20049;-72
2023/08/10 01:33:39;;;;;;;7.15;2.10;;;13.90;99.90;;;;;;5035525;28;20044;-71
2023/08/10 01:36:05;;;;;;;4.20;1.75;;;13.80;99.90;;;;;;5035144;28;20029;-72
2023/08/10 01:38:30;;;;;;;4.28;1.65;;;13.80;99.90;;;;;;5034464;28;20494;-71
2023/08/10 01:40:56;;;;;;;4.40;1.88;;;13.90;99.90;;;;;;5031734;28;20049;-71
2023/08/10 01:43:21;;;;;;;5.25;1.65;;;13.90;99.90;;;;;;5016901;28;20038;-71
2023/08/10 01:45:51;;;;;;;3.65;1.70;;;13.80;99.90;;;;;;5034051;28;20045;-71
2023/08/10 01:48:35;;;;;;;3.95;1.67;;;13.80;99.90;;;;;;5034294;28;20083;-71
2023/08/10 01:51:03;;;;;;;3.60;1.70;;;13.80;99.90;;;;;;5029347;28;20044;-71
2023/08/10 01:53:32;;;;;;;4.65;1.38;;;13.80;99.90;;;;;;5014172;28;20465;-70
2023/08/10 01:55:58;;;;;;;5.38;1.58;;;13.90;99.90;;;;;;5015660;28;20072;-71
2023/08/10 01:58:24;;;;;;;5.70;1.92;;;13.90;99.90;;;;;;5006137;28;20052;-71
2023/08/10 02:00:51;;;;;;;4.57;1.70;;;13.90;99.90;;;;;;5020316;28;20044;-70
2023/08/10 02:03:18;;;;;;;4.70;1.70;;;13.90;99.90;;;;;;5020404;28;20045;-72
2023/08/10 02:05:43;;;;;;;3.95;1.67;;;13.80;99.90;;;;;;5032662;28;20374;-71
2023/08/10 02:08:09;;;;;;;6.40;1.70;;;13.90;99.90;;;;;;5015383;28;20091;-72
2023/08/10 02:10:35;;;;;;;6.60;1.90;;;13.80;99.90;;;;;;5032776;28;20045;-72
2023/08/10 02:13:00;;;;;;;4.90;1.83;;;13.90;99.90;;;;;;5032700;28;20045;-72
2023/08/10 02:15:26;;;;;;;3.53;1.85;;;13.80;99.90;;;;;;5021989;28;20112;-72
2023/08/10 02:17:51;;;;;;;6.65;2.35;;;13.80;99.90;;;;;;5015096;28;20044;-72
2023/08/10 02:20:17;;;;;;;5.10;2.03;;;13.80;99.90;;;;;;4999789;28;20033;-72
2023/08/10 02:22:51;;;;;;;7.45;2.17;;;13.70;99.90;;;;;;5014320;28;20121;-72
2023/08/10 02:25:17;;;;;;;5.82;2.00;;;13.70;99.90;;;;;;5022073;28;20079;-72
2023/08/10 02:27:43;;;;;;;3.83;1.70;;;13.60;99.90;;;;;;5045608;28;20081;-72
2023/08/10 02:30:10;;;;;;;5.90;1.95;;;13.50;99.90;;;;;;5006808;28;20068;-72
2023/08/10 02:32:36;;;;;;;3.05;1.85;;;13.50;99.90;;;;;;5030421;28;20096;-72
2023/08/10 02:35:05;;;;;;;5.07;2.30;;;13.60;99.90;;;;;;5032067;28;20037;-71
2023/08/10 02:37:32;;;;;;;4.18;2.00;;;13.60;99.90;;;;;;5040810;28;20405;-71
2023/08/10 02:39:57;;;;;;;7.03;2.40;;;13.60;99.90;;;;;;5015251;28;20052;-72
2023/08/10 02:42:23;;;;;;;4.25;1.60;;;13.50;99.90;;;;;;5024442;28;20034;-71
2023/08/10 02:44:49;;;;;;;2.10;1.25;;;13.60;99.90;;;;;;5013141;28;20038;-71
2023/08/10 02:47:15;;;;;;;3.42;1.30;;;13.60;99.90;;;;;;5036513;28;20073;-72
2023/08/10 02:49:41;;;;;;;3.28;1.20;;;13.50;99.90;;;;;;4999142;28;20084;-72
2023/08/10 02:52:07;;;;;;;4.07;1.70;;;13.50;99.90;;;;;;5032839;28;20083;-71
2023/08/10 02:54:32;;;;;;;2.80;1.23;;;13.50;99.90;;;;;;5015150;28;20128;-72
2023/08/10 02:56:58;;;;;;;4.22;1.00;;;13.50;99.90;;;;;;5015971;28;20037;-72
2023/08/10 02:59:24;;;;;;;2.03;1.13;;;13.50;99.90;;;;;;5040689;28;20221;-72
2023/08/10 03:01:50;;;;;;;4.75;1.27;;;13.50;99.90;;;;;;5012404;28;20044;-72
2023/08/10 03:04:16;;;;;;;3.95;1.10;;;13.50;99.90;;;;;;5024380;28;20033;-72
2023/08/10 03:06:42;;;;;;;3.55;1.50;;;13.50;99.90;;;;;;5021842;28;20092;-72
2023/08/10 03:09:07;;;;;;;5.10;1.50;;;13.50;99.90;;;;;;5026195;28;20076;-71
2023/08/10 03:11:33;;;;;;;3.75;1.38;;;13.40;99.90;;;;;;5035803;28;20493;-72
2023/08/10 03:13:59;;;;;;;5.13;1.65;;;13.40;99.90;;;;;;5041318;28;20045;-72
2023/08/10 03:16:24;;;;;;;3.90;1.60;;;13.40;99.90;;;;;;5015319;28;20037;-72
2023/08/10 03:18:50;;;;;;;4.70;1.70;;;13.40;99.90;;;;;;5030919;28;20037;-71
2023/08/10 03:21:16;;;;;;;3.42;1.60;;;13.40;99.90;;;;;;5033450;28;20128;-72
2023/08/10 03:23:42;;;;;;;5.53;1.73;;;13.40;99.90;;;;;;5026395;28;20046;-71
2023/08/10 03:26:08;;;;;;;5.55;1.92;;;13.40;99.90;;;;;;5018370;28;20379;-71
2023/08/10 03:28:33;;;;;;;3.90;1.77;;;13.40;99.90;;;;;;5025559;28;20076;-72
2023/08/10 03:30:59;;;;;;;3.58;1.73;;;13.40;99.90;;;;;;5012503;28;20041;-72
2023/08/10 03:33:25;;;;;;;3.90;1.60;;;13.30;99.90;;;;;;5015895;28;20045;-71
2023/08/10 03:35:50;;;;;;;4.90;1.77;;;13.40;99.90;;;;;;5015564;28;20406;-71
2023/08/10 03:38:16;;;;;;;3.83;1.67;;;13.40;99.90;;;;;;5022596;28;20038;-71
2023/08/10 03:40:41;;;;;;;5.05;1.90;;;13.40;99.90;;;;;;5012304;28;20045;-71
2023/08/10 03:43:07;;;;;;;5.65;1.98;;;13.40;99.90;;;;;;4997212;28;20041;-71
2023/08/10 03:45:32;;;;;;;6.20;1.80;;;13.40;99.90;;;;;;5012141;28;20494;-72
2023/08/10 03:47:58;;;;;;;3.47;1.77;;;13.40;99.90;;;;;;5015229;28;21205;-71
2023/08/10 03:50:24;;;;;;;4.88;1.80;;;13.40;99.90;;;;;;5027957;28;20237;-71
2023/08/10 03:52:50;;;;;;;8.27;2.20;;;13.50;99.90;;;;;;5014031;28;20033;-71
2023/08/10 03:55:16;;;;;;;8.27;2.03;;;13.40;99.90;;;;;;5013624;28;20472;-72
2023/08/10 03:57:41;;;;;;;5.45;2.08;;;13.40;99.90;;;;;;5012162;28;20044;-71
2023/08/10 04:00:10;;;;;;;7.60;2.10;;;13.40;99.90;;;;;;5014423;28;20088;-72
2023/08/10 04:02:35;;;;;;;5.78;2.15;;;13.40;99.90;;;;;;5025986;28;20039;-72
2023/08/10 04:05:05;;;;;;;5.00;2.30;;;13.40;99.90;;;;;;5031493;28;20041;-71
2023/08/10 04:07:33;;;;;;;5.68;2.22;;;13.40;99.90;;;;;;5029993;28;20037;-71
2023/08/10 04:09:59;;;;;;;5.50;2.10;;;13.40;99.90;;;;;;5015261;28;20038;-71
2023/08/10 04:12:25;;;;;;;6.53;2.53;;;13.40;99.90;;;;;;5014073;28;20046;-71
2023/08/10 04:14:51;;;;;;;5.60;2.38;;;13.50;99.90;;;;;;4995747;28;20088;-71
2023/08/10 04:17:18;;;;;;;6.65;2.17;;;13.40;99.90;;;;;;5014216;28;20045;-71
2023/08/10 04:19:43;;;;;;;5.82;2.30;;;13.50;99.90;;;;;;4997017;28;20395;-71
2023/08/10 04:22:09;;;;;;;6.10;2.50;;;13.50;99.90;;;;;;4995894;28;20084;-72
2023/08/10 04:24:34;;;;;;;7.10;2.70;;;13.50;99.90;;;;;;5019362;28;20073;-72
2023/08/10 04:27:00;;;;;;;7.35;2.60;;;13.50;99.90;;;;;;5011439;28;20085;-71
2023/08/10 04:29:27;;;;;;;7.32;2.70;;;13.60;99.90;;;;;;5011392;28;20046;-71
2023/08/10 04:31:53;;;;;;;6.13;2.50;;;13.50;99.90;;;;;;4996790;28;20046;-71
2023/08/10 04:34:19;;;;;;;6.72;2.85;;;13.50;99.90;;;;;;5012918;28;20057;-72
2023/08/10 04:36:44;;;;;;;6.95;2.80;;;13.60;99.90;;;;;;4998893;28;20042;-72
2023/08/10 04:39:10;;;;;;;6.80;3.13;;;13.60;99.90;;;;;;4994849;28;20041;-72
2023/08/10 04:41:35;;;;;;;6.18;2.50;;;13.60;99.90;;;;;;5020163;28;20049;-72
2023/08/10 04:44:01;;;;;;;7.57;2.53;;;13.50;99.90;;;;;;5031522;28;20037;-72
2023/08/10 04:46:26;;;;;;;4.93;2.50;;;13.60;99.90;;;;;;5023203;28;20056;-72
2023/08/10 04:48:52;;;;;;;7.45;2.55;;;13.50;99.90;;;;;;5018133;28;20033;-72
2023/08/10 04:51:18;;;;;;;5.63;2.45;;;13.60;99.90;;;;;;5021597;28;20497;-72
2023/08/10 04:53:43;;;;;;;6.03;2.40;;;13.50;99.90;;;;;;5016481;28;20037;-72
2023/08/10 04:56:09;;;;;;;6.93;2.63;;;13.60;99.90;;;;;;5051166;28;20041;-72
2023/08/10 04:58:34;;;;;;;7.40;2.70;;;13.60;99.90;;;;;;5011834;28;20069;-72
2023/08/10 05:01:02;;;;;;;7.93;2.70;;;13.70;99.90;;;;;;5020836;28;20460;-72
2023/08/10 05:03:27;;;;;;;7.05;2.38;;;13.70;99.90;;;;;;5030339;28;20041;-72
2023/08/10 05:05:53;;;;;;;6.18;2.70;;;13.70;99.90;;;;;;5003201;28;20092;-72
2023/08/10 05:08:21;;;;;;;5.72;2.30;;;13.70;99.90;;;;;;5040482;28;20034;-72
2023/08/10 05:10:46;;;;;;;6.18;2.38;;;13.70;99.90;;;;;;5015483;28;20053;-72
2023/08/10 05:13:12;;;;;;;5.22;2.33;;;13.70;99.90;;;;;;4998901;28;20049;-72
2023/08/10 05:15:38;;;;;;;7.50;2.80;;;13.70;99.90;;;;;;5018254;28;20041;-72
2023/08/10 05:18:04;;;;;;;6.93;2.90;;;13.80;99.90;;;;;;5041084;28;20048;-72
2023/08/10 05:20:29;;;;;;;8.50;2.90;;;13.70;99.90;;;;;;5049099;28;20243;-72
2023/08/10 05:22:55;;;;;;;5.93;2.70;;;13.80;99.90;;;;;;5015600;28;20073;-72
2023/08/10 05:25:20;;;;;;;5.25;2.67;;;13.80;99.90;;;;;;5014659;28;20044;-72
2023/08/10 05:27:46;;;;;;;5.65;2.55;;;13.90;99.90;;;;;;5014573;28;20083;-72
2023/08/10 05:30:12;;;;;;;9.93;3.90;;;13.90;99.90;;;;;;5017305;28;20052;-72
2023/08/10 05:32:39;;;;;;;8.05;3.40;;;13.90;99.90;;;;;;5049407;28;20069;-72
2023/08/10 05:35:06;;;;;;;7.78;3.30;;;13.90;99.90;;;;;;5017755;28;20041;-72
2023/08/10 05:37:33;;;;;;;6.30;3.00;;;13.90;99.90;;;;;;5016356;28;20048;-72
2023/08/10 05:39:59;;;;;;;6.55;2.35;;;14.00;99.90;;;;;;5017745;28;20133;-72
2023/08/10 05:42:25;;;;;;;6.55;2.63;;;14.00;99.90;;;;;;5036589;28;20382;-72
2023/08/10 05:44:50;;;;;;;6.22;2.70;;;14.00;99.90;;;;;;5029842;28;20141;-72
2023/08/10 05:47:16;;;;;;;6.38;2.97;;;14.10;99.90;;;;;;5022652;28;20041;-72
2023/08/10 05:49:42;;;;;;;5.65;2.60;;;14.10;99.90;;;;;;5014803;28;20053;-78
2023/08/10 05:52:08;;;;;;;9.05;3.13;;;14.10;99.90;;;;;;5037496;28;20550;-76
2023/08/10 05:54:34;;;;;;;6.53;2.90;;;14.20;99.90;;;;;;5014453;28;20045;-85
2023/08/10 05:57:00;;;;;;;5.90;3.00;;;14.40;99.90;;;;;;5005124;28;20505;-77
2023/08/10 05:59:26;;;;;;;7.85;3.05;;;14.30;99.90;;;;;;5014775;28;20069;-73
2023/08/10 06:01:52;;;;;;;6.45;2.70;;;14.30;99.90;;;;;;5014827;28;20053;-73
2023/08/10 06:04:18;;;;;;;5.55;2.58;;;14.30;99.90;;;;;;5002828;28;20489;-73
2023/08/10 06:06:44;;;;;;;7.28;2.97;;;14.40;99.90;;;;;;5021317;28;20069;-73
2023/08/10 06:09:11;;;;;;;6.15;2.55;;;14.30;99.90;;;;;;5002046;28;20030;-73
2023/08/10 06:11:37;;;;;;;5.90;2.67;;;14.40;99.90;;;;;;5020306;28;20394;-73
2023/08/10 06:14:02;;;;;;;7.68;2.60;;;14.40;99.90;;;;;;5008438;28;20040;-73
2023/08/10 06:16:28;;;;;;;8.40;2.60;;;14.40;99.90;;;;;;5023636;28;20038;-73
2023/08/10 06:18:54;;;;;;;7.57;2.75;;;14.50;99.90;;;;;;5014920;28;20124;-73
2023/08/10 06:21:19;;;;;;;9.25;2.85;;;14.50;99.90;;;;;;5015620;28;20120;-73
2023/08/10 06:23:45;;;;;;;7.50;2.50;;;14.50;99.90;;;;;;4999884;28;20173;-73
2023/08/10 06:26:12;;;;;;;7.75;2.60;;;14.60;99.90;;;;;;5020671;28;20033;-73
2023/08/10 06:28:38;;;;;;;7.90;3.10;;;14.70;99.90;;;;;;5031981;28;20030;-73
2023/08/10 06:31:11;;;;;;;6.30;2.55;;;14.70;99.90;;;;;;5021625;28;20051;-73
2023/08/10 06:33:37;;;;;;;8.00;2.53;;;14.90;99.90;;;;;;5004504;28;20410;-73
2023/08/10 06:36:06;;;;;;;7.78;2.60;;;15.00;99.90;;;;;;5009559;28;20045;-73
2023/08/10 06:38:34;;;;;;;7.07;2.70;;;15.00;99.90;;;;;;5028145;28;20041;-73
2023/08/10 06:41:01;;;;;;;6.07;2.50;;;15.10;99.90;;;;;;5012161;28;20121;-73
2023/08/10 06:43:26;;;;;;;6.70;2.45;;;15.20;99.90;;;;;;5008915;28;20025;-73
2023/08/10 06:45:52;;;;;;;9.25;2.35;;;15.30;99.90;;;;;;5031614;28;20045;-73
2023/08/10 06:48:17;;;;;;;7.03;2.20;;;15.40;99.90;;;;;;5007275;28;20040;-73
2023/08/10 06:50:43;;;;;;;6.93;2.90;;;15.50;99.90;;;;;;5000043;28;20787;-73
2023/08/10 06:53:09;;;;;;;6.90;2.33;;;15.50;99.90;;;;;;5027441;28;20490;-73
2023/08/10 06:55:35;;;;;;;5.57;2.05;;;15.60;99.90;;;;;;5015358;28;20411;-73
2023/08/10 06:58:02;;;;;;;7.28;2.55;;;15.70;99.90;;;;;;5012405;28;20033;-73
2023/08/10 07:00:28;;;;;;;5.75;2.00;;;15.70;99.90;;;;;;5026890;28;20403;-72
2023/08/10 07:02:56;;;;;;;9.52;2.10;;;15.80;99.90;;;;;;5006319;28;20038;-73
2023/08/10 07:05:28;;;;;;;3.67;1.80;;;15.90;99.90;;;;;;5012894;28;20493;-73
2023/08/10 07:07:55;;;;;;;10.35;2.05;;;15.90;99.90;;;;;;5020216;28;20092;-73
2023/08/10 07:10:21;;;;;;;5.95;1.83;;;16.00;99.90;;;;;;5014318;28;20374;-73
2023/08/10 07:12:46;;;;;;;6.25;1.35;;;16.00;99.90;;;;;;5009613;28;20047;-73
2023/08/10 07:15:12;;;;;;;5.22;1.50;;;16.10;99.90;;;;;;5032251;28;20314;-73
2023/08/10 07:17:38;;;;;;;9.38;2.03;;;16.20;99.90;;;;;;5012285;28;20041;-73
2023/08/10 07:20:05;;;;;;;5.93;1.95;;;16.30;99.90;;;;;;5031014;28;20038;-73
2023/08/10 07:22:31;;;;;;;6.32;2.03;;;16.40;99.90;;;;;;5011138;28;20068;-73
2023/08/10 07:25:00;;;;;;;5.57;1.75;;;16.30;99.90;;;;;;5025965;28;20077;-72
2023/08/10 07:27:26;;;;;;;5.90;1.73;;;16.40;99.90;;;;;;4999569;28;20038;-73
2023/08/10 07:29:51;;;;;;;5.85;1.70;;;16.50;99.90;;;;;;5022362;28;20053;-73
2023/08/10 07:32:19;;;;;;;7.90;1.50;;;16.60;99.90;;;;;;5011935;28;20486;-72
2023/08/10 07:34:45;;;;;;;4.45;1.20;;;16.70;99.90;;;;;;5030709;28;20052;-73
2023/08/10 07:37:10;;;;;;;4.10;1.40;;;16.70;99.90;;;;;;5025343;28;20485;-73
2023/08/10 07:39:36;;;;;;;7.72;1.60;;;16.70;99.90;;;;;;5020723;28;20449;-73
2023/08/10 07:42:01;;;;;;;5.95;1.40;;;16.80;99.90;;;;;;5034893;28;20042;-73
2023/08/10 07:44:27;;;;;;;6.40;1.30;;;16.80;99.90;;;;;;5013304;28;20048;-73
2023/08/10 07:46:53;;;;;;;6.90;1.63;;;16.90;99.90;;;;;;5012159;28;20037;-73
2023/08/10 07:49:18;;;;;;;6.35;1.70;;;17.00;99.90;;;;;;4999289;28;20046;-73
2023/08/10 07:51:47;;;;;;;8.10;1.63;;;17.00;99.90;;;;;;5002463;28;20032;-73
2023/08/10 07:54:13;;;;;;;8.77;1.75;;;17.20;99.90;;;;;;5015909;28;20037;-80
2023/08/10 07:56:39;;;;;;;5.93;1.58;;;17.20;99.90;;;;;;5015003;28;20116;-79
2023/08/10 07:59:05;;;;;;;4.78;1.45;;;17.30;99.90;;;;;;5031814;28;20128;-75
2023/08/10 08:01:30;;;;;;;5.20;1.50;;;17.20;99.90;;;;;;5010353;28;20044;-73
2023/08/10 08:03:56;;;;;;;7.65;1.45;;;17.20;99.90;;;;;;5020030;28;20041;-73
2023/08/10 08:06:23;;;;;;;4.10;1.45;;;17.20;99.90;;;;;;5029688;28;20048;-73
2023/08/10 08:08:48;;;;;;;5.18;1.50;;;17.10;99.90;;;;;;5021500;28;20048;-73
2023/08/10 08:11:14;;;;;;;3.67;1.20;;;17.00;99.90;;;;;;4998498;28;20037;-73
2023/08/10 08:13:40;;;;;;;6.20;1.33;;;17.10;99.90;;;;;;5011525;28;20038;-73
2023/08/10 08:16:05;;;;;;;5.63;1.42;;;17.10;99.90;;;;;;5026312;28;20041;-73
2023/08/10 08:18:41;;;;;;;5.38;1.38;;;17.00;99.90;;;;;;5021862;28;20516;-73
2023/08/10 08:21:09;;;;;;;5.50;1.35;;;17.00;99.90;;;;;;5013569;28;20405;-73
2023/08/10 08:23:35;;;;;;;6.00;1.30;;;17.00;99.90;;;;;;5014241;28;20120;-73
2023/08/10 08:26:00;;;;;;;8.43;1.80;;;16.90;99.90;;;;;;5029177;28;20117;-72
2023/08/10 08:28:26;;;;;;;5.10;1.20;;;16.90;99.90;;;;;;5012564;28;20045;-73
2023/08/10 08:30:52;;;;;;;7.45;1.58;;;16.90;99.90;;;;;;5029078;28;20041;-73
2023/08/10 08:33:18;;;;;;;5.22;1.13;;;16.90;99.90;;;;;;5013979;28;20037;-73
2023/08/10 08:35:45;;;;;;;6.40;1.48;;;16.90;99.90;;;;;;5008147;28;20045;-73
2023/08/10 08:38:13;;;;;;;7.25;1.80;;;16.80;99.90;;;;;;4999654;28;20064;-73
2023/08/10 08:40:39;;;;;;;3.70;1.10;;;16.90;99.90;;;;;;5028880;28;20057;-73
2023/08/10 08:43:05;;;;;;;5.80;1.50;;;16.90;99.90;;;;;;5026779;28;20044;-73
2023/08/10 08:45:31;;;;;;;5.65;1.38;;;17.00;99.90;;;;;;4998790;28;20034;-73
2023/08/10 08:47:57;;;;;;;5.15;1.60;;;17.00;99.90;;;;;;4999242;28;20514;-73
2023/08/10 08:50:24;;;;;;;6.57;1.30;;;16.90;99.90;;;;;;5018174;28;20683;-73
2023/08/10 08:52:51;;;;;;;3.60;1.25;;;17.00;99.90;;;;;;5018321;28;20046;-73
2023/08/10 08:55:17;;;;;;;3.95;1.25;;;17.00;99.90;;;;;;5034171;28;20040;-73
2023/08/10 08:57:43;;;;;;;5.57;1.40;;;17.10;99.90;;;;;;5033480;28;20575;-73
2023/08/10 09:00:09;;;;;;;5.72;1.40;;;17.10;99.90;;;;;;5033075;28;20036;-73
2023/08/10 09:02:35;;;;;;;4.47;1.40;;;17.10;99.90;;;;;;5034327;28;20033;-73
2023/08/10 09:05:01;;;;;;;7.00;1.52;;;17.10;99.90;;;;;;5016153;28;20056;-73
2023/08/10 09:07:30;;;;;;;3.80;1.30;;;17.20;99.90;;;;;;5033305;28;20045;-73
2023/08/10 09:09:57;;;;;;;1.67;1.00;;;17.20;99.90;;;;;;5035564;28;20033;-73
2023/08/10 09:12:31;;;;;;;4.10;1.10;;;17.20;99.90;;;;;;5017590;28;20049;-73
2023/08/10 09:15:04;;;;;;;6.15;1.20;;;17.20;99.90;;;;;;5034855;28;20060;-73
2023/08/10 09:17:31;;;;;;;4.30;1.40;;;17.30;99.90;;;;;;5022895;28;20047;-73
2023/08/10 09:19:57;;;;;;;4.80;1.40;;;17.30;99.90;;;;;;5017512;28;20041;-73
2023/08/10 09:22:35;;;;;;;7.95;1.50;;;17.30;99.90;;;;;;5017915;28;20041;-73
2023/08/10 09:25:02;;;;;;;5.40;1.23;;;17.40;99.90;;;;;;5016354;28;20039;-73
2023/08/10 09:27:28;;;;;;;7.22;1.35;;;17.40;99.90;;;;;;5029676;28;20136;-73
2023/08/10 09:29:58;;;;;;;6.28;1.33;;;17.40;99.90;;;;;;5034263;28;20127;-73
2023/08/10 09:32:24;;;;;;;9.63;1.30;;;17.40;99.90;;;;;;5030617;28;20073;-73
2023/08/10 09:34:50;;;;;;;5.38;1.30;;;17.40;99.90;;;;;;5032243;28;20091;-73
2023/08/10 09:37:15;;;;;;;6.78;1.23;;;17.40;99.90;;;;;;5023079;28;20054;-73
2023/08/10 09:39:41;;;;;;;4.82;1.27;;;17.40;99.90;;;;;;5014315;28;20128;-73
2023/08/10 09:42:07;;;;;;;5.45;1.30;;;17.50;99.90;;;;;;5012560;28;20154;-73
2023/08/10 09:44:49;;;;;;;4.85;1.20;;;17.40;99.90;;;;;;5008273;28;20054;-73
2023/08/10 09:47:16;;;;;;;4.25;1.17;;;17.40;99.90;;;;;;5016543;28;20038;-73
2023/08/10 09:49:57;;;;;;;10.20;1.60;;;17.40;99.90;;;;;;5031738;28;20052;-73
2023/08/10 09:52:24;;;;;;;7.27;1.70;;;17.50;99.90;;;;;;5033383;28;20037;-73
2023/08/10 09:54:51;;;;;;;11.02;1.75;;;17.50;99.90;;;;;;5032777;28;20042;-73
2023/08/10 09:57:20;;;;;;;5.25;1.10;;;17.50;99.90;;;;;;5027651;28;20041;-73
2023/08/10 09:59:47;;;;;;;4.72;1.10;;;17.50;99.90;;;;;;5023842;28;20041;-73
2023/08/10 10:02:14;;;;;;;4.72;1.10;;;17.50;99.90;;;;;;5033511;28;20041;-73
2023/08/10 10:04:39;;;;;;;4.60;1.00;;;17.60;99.90;;;;;;5016028;28;20393;-73
2023/08/10 10:07:07;;;;;;;5.20;1.40;;;17.60;99.90;;;;;;5016391;28;20120;-73
2023/08/10 10:09:37;;;;;;;4.72;1.33;;;17.70;99.90;;;;;;5030816;28;20112;-73
2023/08/10 10:12:13;;;;;;;5.93;1.60;;;17.70;99.90;;;;;;5032308;28;20064;-73
2023/08/10 10:14:47;;;;;;;6.68;1.10;;;17.80;99.90;;;;;;5004766;28;20065;-73
2023/08/10 10:17:17;;;;;;;4.25;1.15;;;17.90;99.90;;;;;;5003613;28;20045;-73
2023/08/10 10:19:49;;;;;;;5.70;1.30;;;17.70;99.90;;;;;;5014397;28;20125;-73
2023/08/10 10:22:18;;;;;;;;;;;17.80;99.90;;;;;;5020070;28;20033;-73
2023/08/10 10:24:44;;;;;;;6.55;1.10;;;17.80;99.90;;;;;;5024980;28;20004;-73
2023/08/10 10:27:14;;;;;;;4.88;1.30;;;17.70;99.90;;;;;;5016102;28;20092;-73
2023/08/10 10:30:01;;;;;;;4.07;1.20;;;17.70;99.90;;;;;;5032827;28;20048;-73
2023/08/10 10:32:27;;;;;;;4.78;1.30;;;17.80;99.90;;;;;;5032771;28;20045;-73
2023/08/10 10:34:53;;;;;;;5.15;1.15;;;17.70;99.90;;;;;;5016050;28;20048;-73
2023/08/10 10:37:30;;;;;;;8.95;1.60;;;17.80;99.90;;;;;;5031713;28;20462;-73
2023/08/10 10:40:18;;;;;;;6.07;1.40;;;17.80;99.90;;;;;;5012035;28;20112;-73
2023/08/10 10:43:06;;;;;;;4.07;1.30;;;17.90;99.90;;;;;;5015494;28;20045;-73
2023/08/10 10:45:40;;;;;;;4.38;1.50;;;17.80;99.90;;;;;;5042151;28;20095;-73
2023/08/10 10:48:06;;;;;;;4.75;1.50;;;17.80;99.90;;;;;;5042812;28;20562;-73
2023/08/10 10:50:33;;;;;;;3.75;1.40;;;17.70;99.90;;;;;;5000022;28;20069;-73
2023/08/10 10:53:04;;;;;;;6.00;1.40;;;17.80;99.90;;;;;;5037293;28;20111;-73
2023/08/10 10:55:35;;;;;;;4.93;1.40;;;17.80;99.90;;;;;;5031171;28;20402;-73
2023/08/10 10:58:02;;;;;;;5.50;1.10;;;17.80;99.90;;;;;;5016249;28;20055;-73
2023/08/10 11:00:29;;;;;;;5.75;1.38;;;17.80;99.90;;;;;;5031776;28;20042;-73
2023/08/10 11:02:55;;;;;;;5.30;1.42;;;17.80;99.90;;;;;;5025267;28;20479;-73
2023/08/10 11:05:20;;;;;;;6.40;1.63;;;17.80;99.90;;;;;;5026812;28;20029;-73
2023/08/10 11:07:48;;;;;;;7.20;1.75;;;17.80;99.90;;;;;;5015306;28;20037;-73
2023/08/10 11:10:16;;;;;;;4.70;1.42;;;17.80;99.90;;;;;;5030963;28;20041;-73
2023/08/10 11:12:44;;;;;;;7.72;1.60;;;17.80;99.90;;;;;;5033263;28;20040;-73
2023/08/10 11:15:12;;;;;;;2.53;1.10;;;17.90;99.90;;;;;;5010187;28;20072;-72
2023/08/10 11:17:39;;;;;;;5.88;1.25;;;17.90;99.90;;;;;;5013981;28;20049;-73
2023/08/10 11:20:18;;;;;;;6.05;1.50;;;17.90;99.90;;;;;;5025846;28;20048;-73
2023/08/10 11:22:50;;;;;;;4.15;1.33;;;17.90;99.90;;;;;;5031213;28;20061;-73
2023/08/10 11:25:23;;;;;;;4.60;1.38;;;17.90;99.90;;;;;;5027055;28;20022;-73
2023/08/10 11:27:51;;;;;;;7.18;1.60;;;17.90;99.90;;;;;;5014236;28;20517;-73
2023/08/10 11:30:22;;;;;;;8.38;1.83;;;18.00;99.90;;;;;;5011971;28;20091;-73
2023/08/10 11:32:50;;;;;;;7.20;1.85;;;18.00;99.90;;;;;;5032566;28;20056;-73
2023/08/10 11:35:21;;;;;;;4.15;1.40;;;17.90;99.90;;;;;;5012660;28;20076;-73
2023/08/10 11:37:48;;;;;;;8.45;1.70;;;18.00;99.90;;;;;;4996059;28;20042;-73
2023/08/10 11:40:20;;;;;;;5.47;1.30;;;18.00;99.90;;;;;;4995774;28;20077;-73
2023/08/10 11:42:49;;;;;;;7.70;1.83;;;18.00;99.90;;;;;;4995813;28;20034;-73
2023/08/10 11:45:19;;;;;;;5.80;1.90;;;18.00;99.90;;;;;;4997995;28;20448;-73
2023/08/10 11:47:58;;;;;;;4.90;1.60;;;18.00;99.90;;;;;;5029284;28;20038;-73
2023/08/10 11:50:26;;;;;;;4.65;1.50;;;18.00;99.90;;;;;;4995795;28;20511;-73
2023/08/10 11:52:53;;;;;;;6.05;1.85;;;18.10;99.90;;;;;;5012462;28;20037;-77
2023/08/10 11:55:20;;;;;;;6.57;1.85;;;18.20;99.90;;;;;;5017199;28;20065;-73
2023/08/10 11:57:54;;;;;;;5.03;1.85;;;18.20;99.90;;;;;;5031925;28;20045;-73
2023/08/10 12:00:30;;;;;;;7.30;2.22;;;18.20;99.90;;;;;;5021382;28;20045;-72
2023/08/10 12:03:18;;;;;;;5.63;1.90;;;18.10;99.90;;;;;;5028582;28;20041;-72
2023/08/10 12:05:47;;;;;;;7.50;2.53;;;18.10;99.90;;;;;;5029862;28;20088;-73
2023/08/10 12:08:16;;;;;;;6.00;2.20;;;18.10;99.90;;;;;;5010497;28;20435;-73
2023/08/10 12:10:49;;;;;;;6.80;1.80;;;18.10;99.90;;;;;;5013978;28;20080;-73
2023/08/10 12:13:17;;;;;;;4.80;1.60;;;18.10;99.90;;;;;;5017909;28;20037;-73
2023/08/10 12:15:47;;;;;;;4.93;1.60;;;18.10;99.90;;;;;;5035829;28;20124;-73
2023/08/10 12:18:15;;;;;;;7.93;2.20;;;18.10;99.90;;;;;;5025007;28;20559;-72
2023/08/10 12:20:45;;;;;;;8.27;2.28;;;18.10;99.90;;;;;;5010858;28;20042;-73
2023/08/10 12:23:11;;;;;;;7.78;2.03;;;18.10;99.90;;;;;;5018587;28;20044;-73
2023/08/10 12:25:37;;;;;;;7.45;2.10;;;18.10;99.90;;;;;;5023601;28;20034;-73
2023/08/10 12:28:07;;;;;;;4.47;2.17;;;18.10;99.90;;;;;;5019206;28;20422;-73
2023/08/10 12:30:34;;;;;;;5.75;2.08;;;18.10;99.90;;;;;;5031267;28;20399;-73
2023/08/10 12:33:00;;;;;;;5.57;2.22;;;18.10;99.90;;;;;;5026135;28;20037;-73
2023/08/10 12:35:26;;;;;;;6.88;2.22;;;18.00;99.90;;;;;;5039086;28;20164;-73
2023/08/10 12:37:51;;;;;;;7.43;2.53;;;18.00;99.90;;;;;;5029277;28;20133;-73
2023/08/10 12:40:17;;;;;;;7.05;1.92;;;18.00;99.90;;;;;;5034835;28;20041;-73
2023/08/10 12:42:44;;;;;;;5.22;2.03;;;18.00;99.90;;;;;;5016520;28;20043;-73
2023/08/10 12:45:10;;;;;;;8.57;2.47;;;17.90;99.90;;;;;;5020329;28;20061;-73
2023/08/10 12:47:40;;;;;;;5.75;2.17;;;18.00;99.90;;;;;;5010922;28;20033;-73
2023/08/10 12:50:14;;;;;;;7.20;2.13;;;17.90;99.90;;;;;;5028522;28;20053;-73